Time;durP1;ratioP1;P1;durP2;ratioP2;P2;SDS_P1;SDS_P2;PMS_P1;PMS_P2;Temp;Humidity;BMP_temperature;BMP_pressure;BME280_temperature;BME280_humidity;BME280_pressure;Samples;Min_cycle;Max_cycle;Signal;HPM_P1;HPM_P2
2022/05/03 00:00:47;;;;;;;21.73;11.88;;;;;;;7.89;100.00;99613.63;4959094;28;20082;-48
2022/05/03 00:04:00;;;;;;;16.65;10.38;;;;;;;7.93;100.00;99617.09;4958412;28;20061;-49
2022/05/03 00:06:56;;;;;;;19.75;11.45;;;;;;;8.01;100.00;99617.78;4958996;28;20061;-48
2022/05/03 00:10:04;;;;;;;17.98;11.38;;;;;;;8.07;100.00;99619.44;4957983;28;20054;-48
2022/05/03 00:13:11;;;;;;;16.15;10.38;;;;;;;8.18;100.00;99614.88;4958517;28;20079;-48
2022/05/03 00:15:57;;;;;;;18.45;10.45;;;;;;;8.29;100.00;99610.34;4959220;28;20050;-49
2022/05/03 00:18:42;;;;;;;13.98;8.93;;;;;;;8.44;100.00;99606.59;4960324;28;20062;-49
2022/05/03 00:21:27;;;;;;;12.88;8.80;;;;;;;8.56;100.00;99606.34;4958875;28;20051;-48
2022/05/03 00:24:11;;;;;;;17.42;8.40;;;;;;;8.68;99.45;99606.97;4959295;28;20516;-49
2022/05/03 00:26:56;;;;;;;16.13;8.23;;;;;;;8.93;96.42;99609.94;4958342;28;20051;-48
2022/05/03 00:29:41;;;;;;;16.38;8.57;;;;;;;9.18;94.14;99598.06;4957810;28;20047;-49
2022/05/03 00:32:26;;;;;;;15.43;9.35;;;;;;;9.43;92.05;99602.75;4970533;28;20101;-48
2022/05/03 00:35:11;;;;;;;11.90;8.75;;;;;;;9.55;90.21;99598.09;4957275;28;20050;-49
2022/05/03 00:37:55;;;;;;;15.32;8.10;;;;;;;9.70;89.75;99602.06;4958762;28;20051;-49
2022/05/03 00:40:47;;;;;;;11.32;8.10;;;;;;;9.84;87.73;99597.34;4958517;28;20138;-48
2022/05/03 00:43:42;;;;;;;11.18;7.32;;;;;;;9.91;86.37;99602.41;4957753;28;20058;-49
2022/05/03 00:46:30;;;;;;;14.35;8.30;;;;;;;10.02;86.02;99603.88;4958526;28;20100;-49
2022/05/03 00:49:20;;;;;;;16.73;9.45;;;;;;;10.10;83.92;99603.66;4958828;28;20069;-49
2022/05/03 00:52:19;;;;;;;11.50;7.95;;;;;;;10.15;84.04;99590.47;4958121;28;20108;-49
2022/05/03 00:55:08;;;;;;;15.13;10.00;;;;;;;10.09;82.97;99599.31;4959125;28;20062;-50
2022/05/03 00:58:19;;;;;;;14.40;9.10;;;;;;;10.17;81.83;99599.13;4957817;28;20058;-49
2022/05/03 01:01:16;;;;;;;14.27;9.55;;;;;;;10.25;80.99;99605.03;4958250;28;20140;-49
2022/05/03 01:04:33;;;;;;;12.57;8.35;;;;;;;10.35;79.33;99600.41;4957861;28;20055;-49
2022/05/03 01:07:32;;;;;;;18.48;10.07;;;;;;;10.32;79.02;99603.97;4958702;28;20054;-49
2022/05/03 01:10:16;;;;;;;12.52;8.25;;;;;;;10.45;78.85;99609.75;4958424;28;20070;-49
2022/05/03 01:13:24;;;;;;;14.23;8.63;;;;;;;10.51;78.98;99601.72;4957784;28;20596;-49
2022/05/03 01:16:26;;;;;;;15.50;8.57;;;;;;;10.58;78.77;99608.50;4956949;28;20051;-48
2022/05/03 01:19:32;;;;;;;14.23;8.90;;;;;;;10.62;79.25;99604.03;4958550;28;20054;-49
2022/05/03 01:22:35;;;;;;;14.75;9.07;;;;;;;10.66;78.63;99601.28;4958700;28;20137;-49
2022/05/03 01:25:35;;;;;;;14.02;9.00;;;;;;;10.69;78.45;99601.22;4958548;28;20057;-50
2022/05/03 01:29:01;;;;;;;13.85;8.73;;;;;;;10.77;78.13;99608.84;4957990;28;20047;-50
2022/05/03 01:31:47;;;;;;;16.20;9.32;;;;;;;10.82;77.88;99599.09;4957246;28;20065;-50
2022/05/03 01:34:33;;;;;;;15.52;8.90;;;;;;;10.84;78.19;99601.66;4957216;28;20059;-49
2022/05/03 01:37:24;;;;;;;14.40;9.23;;;;;;;10.85;77.80;99598.97;4958228;28;20873;-49
2022/05/03 01:40:37;;;;;;;15.07;9.23;;;;;;;10.74;78.32;99595.81;4957896;28;20085;-48
2022/05/03 01:43:31;;;;;;;11.50;8.20;;;;;;;10.84;77.66;99601.66;4955963;28;20067;-49
2022/05/03 01:46:18;;;;;;;13.75;8.55;;;;;;;10.80;78.17;99603.50;4958292;28;20059;-49
2022/05/03 01:52:55;;;;;;;15.90;10.98;;;;;;;10.71;78.25;99604.63;4957497;28;20233;-49
2022/05/03 01:55:40;;;;;;;13.40;9.38;;;;;;;10.70;78.56;99602.91;4935257;28;20055;-48
2022/05/03 01:58:40;;;;;;;16.75;10.38;;;;;;;10.59;79.78;99596.25;4935239;28;20188;-49
2022/05/03 02:01:40;;;;;;;14.70;10.13;;;;;;;10.51;80.47;99601.72;4956262;28;20047;-48
2022/05/03 02:04:56;;;;;;;15.75;9.27;;;;;;;10.48;80.52;99601.81;4958156;28;20039;-49
2022/05/03 02:07:55;;;;;;;13.55;9.07;;;;;;;10.46;80.32;99596.63;4957943;28;20116;-49
2022/05/03 02:11:04;;;;;;;13.02;9.15;;;;;;;10.43;80.56;99601.06;4956414;28;20046;-49
2022/05/03 02:17:01;;;;;;;15.30;10.13;;;;;;;10.22;83.27;99599.88;4956515;28;20154;-48
2022/05/03 02:20:27;;;;;;;13.77;8.82;;;;;;;10.14;83.03;99587.00;4957463;28;20051;-49
2022/05/03 02:23:31;;;;;;;15.02;9.20;;;;;;;10.09;83.12;99593.25;4956680;28;20145;-48
2022/05/03 02:26:31;;;;;;;15.68;9.13;;;;;;;10.05;83.45;99592.47;4956900;28;20135;-49
2022/05/03 02:29:18;;;;;;;15.30;9.95;;;;;;;9.96;84.62;99588.31;4957635;28;20054;-49
2022/05/03 02:32:08;;;;;;;15.02;10.15;;;;;;;9.91;85.28;99584.97;4956484;28;20047;-49
2022/05/03 02:35:02;;;;;;;18.88;10.40;;;;;;;9.87;87.21;99585.09;4956488;28;20069;-49
2022/05/03 02:37:57;;;;;;;14.95;10.35;;;;;;;9.69;89.77;99583.81;4955359;28;20047;-49
2022/05/03 02:40:44;;;;;;;17.95;11.30;;;;;;;9.51;92.78;99582.50;4956845;28;20059;-49
2022/05/03 02:43:30;;;;;;;18.45;11.60;;;;;;;9.36;94.58;99581.97;4956449;28;20055;-49
2022/05/03 02:46:24;;;;;;;18.00;11.48;;;;;;;9.55;91.96;99586.75;4956652;28;20071;-49
2022/05/03 02:49:18;;;;;;;16.45;11.05;;;;;;;9.54;90.18;99585.03;4956177;28;20496;-49
2022/05/03 02:52:08;;;;;;;;;;;;;;;9.43;91.14;99592.28;4957054;28;20393;-48
2022/05/03 02:55:07;;;;;;;17.00;9.82;;;;;;;9.42;89.86;99585.31;4956883;28;19983;-49
2022/05/03 02:58:05;;;;;;;14.27;9.80;;;;;;;9.25;92.08;99593.56;4955697;28;20482;-49
2022/05/03 03:04:19;;;;;;;13.07;8.50;;;;;;;9.21;88.86;99587.53;4950494;28;20109;-49
2022/05/03 03:07:04;;;;;;;15.43;9.00;;;;;;;9.24;87.83;99584.88;4956340;28;20059;-48
2022/05/03 03:10:05;;;;;;;15.50;9.15;;;;;;;9.29;86.55;99595.19;4956289;28;20051;-49
2022/05/03 03:13:02;;;;;;;15.70;9.23;;;;;;;9.31;85.87;99596.03;4955202;28;20039;-49
2022/05/03 03:15:47;;;;;;;15.13;8.50;;;;;;;9.34;85.43;99596.81;4956362;28;20070;-49
2022/05/03 03:18:33;;;;;;;17.52;9.63;;;;;;;9.36;85.07;99600.28;4955679;28;20384;-49
2022/05/03 03:21:24;;;;;;;12.85;9.10;;;;;;;9.38;85.84;99595.00;4956334;28;20050;-49
2022/05/03 03:24:11;;;;;;;17.33;9.70;;;;;;;9.25;90.50;99597.03;4958232;28;20072;-49
2022/05/03 03:26:58;;;;;;;23.17;11.07;;;;;;;9.21;90.41;99598.00;4958548;28;20542;-48
2022/05/03 03:29:46;;;;;;;18.60;10.50;;;;;;;9.13;91.80;99592.97;4958107;28;20050;-48
2022/05/03 03:32:31;;;;;;;18.20;11.20;;;;;;;9.04;92.27;99601.00;4958719;28;20096;-49
2022/05/03 03:35:17;;;;;;;17.45;10.35;;;;;;;9.13;91.09;99599.91;4958274;28;20788;-49
2022/05/03 03:38:03;;;;;;;30.05;12.07;;;;;;;9.19;89.15;99604.16;4958502;28;20074;-49
2022/05/03 03:40:47;;;;;;;14.85;9.63;;;;;;;9.31;87.46;99602.13;4957768;28;20343;-49
2022/05/03 03:43:32;;;;;;;19.88;9.82;;;;;;;9.35;86.27;99598.53;4956829;28;20050;-49
2022/05/03 03:46:17;;;;;;;17.60;10.40;;;;;;;9.30;85.92;99605.63;4958714;28;20073;-49
2022/05/03 03:49:01;;;;;;;16.90;9.63;;;;;;;9.35;85.42;99608.97;4958414;28;20071;-49
2022/05/03 03:51:49;;;;;;;16.58;10.63;;;;;;;9.21;85.53;99603.22;4956247;28;20051;-49
2022/05/03 03:54:35;;;;;;;22.05;11.23;;;;;;;9.19;85.57;99601.53;4958562;28;20054;-49
2022/05/03 03:57:21;;;;;;;23.48;11.85;;;;;;;9.18;85.05;99608.53;4957903;28;20123;-49
2022/05/03 04:00:11;;;;;;;18.42;10.10;;;;;;;9.34;85.23;99603.81;4958354;28;20057;-49
2022/05/03 04:03:00;;;;;;;22.38;12.10;;;;;;;9.33;84.48;99607.31;4958252;28;20435;-49
2022/05/03 04:05:45;;;;;;;20.02;11.07;;;;;;;9.44;83.83;99609.69;4958150;28;20172;-49
2022/05/03 04:08:30;;;;;;;19.67;10.48;;;;;;;9.57;83.07;99609.34;4959385;28;20413;-48
2022/05/03 04:11:16;;;;;;;21.50;11.35;;;;;;;9.61;82.64;99604.91;4957961;28;20141;-48
2022/05/03 04:14:01;;;;;;;18.85;10.57;;;;;;;9.71;84.29;99602.91;4958225;28;20051;-49
2022/05/03 04:16:46;;;;;;;23.70;11.70;;;;;;;9.76;88.15;99593.22;4957852;28;20125;-49
2022/05/03 04:19:31;;;;;;;18.20;11.75;;;;;;;10.09;86.44;99612.41;4957710;28;20058;-49
2022/05/03 04:22:34;;;;;;;17.58;10.70;;;;;;;10.48;84.50;99623.59;4957944;28;20046;-50
2022/05/03 04:25:19;;;;;;;16.58;10.63;;;;;;;11.13;81.29;99625.22;4957515;28;20985;-49
2022/05/03 04:28:03;;;;;;;20.08;12.27;;;;;;;11.59;76.76;99623.78;4957621;28;20046;-50
2022/05/03 04:30:48;;;;;;;17.08;10.00;;;;;;;12.07;71.67;99623.13;4956473;28;20055;-49
2022/05/03 04:33:33;;;;;;;16.67;11.18;;;;;;;12.63;67.92;99633.38;4957142;28;20047;-49
2022/05/03 04:36:17;;;;;;;27.70;15.15;;;;;;;13.18;69.62;99627.84;4950472;28;20046;-49
2022/05/03 04:39:03;;;;;;;21.17;13.73;;;;;;;13.86;67.74;99627.81;4958276;28;20051;-49
2022/05/03 04:41:48;;;;;;;22.23;11.35;;;;;;;14.34;65.64;99629.31;4957361;28;20066;-49
2022/05/03 04:44:32;;;;;;;15.63;10.52;;;;;;;14.70;62.55;99621.59;4957511;28;20063;-48
2022/05/03 04:47:16;;;;;;;17.42;10.75;;;;;;;14.47;57.58;99626.06;4956378;28;20119;-49
2022/05/03 04:50:01;;;;;;;14.68;10.27;;;;;;;14.48;57.04;99625.13;4957296;28;20055;-48
2022/05/03 04:52:46;;;;;;;13.43;9.45;;;;;;;14.87;56.59;99628.75;4958066;28;20109;-49
2022/05/03 04:55:31;;;;;;;15.65;9.27;;;;;;;14.93;57.03;99633.75;4957579;28;20189;-49
2022/05/03 04:58:16;;;;;;;13.77;9.23;;;;;;;15.85;56.33;99624.94;4957012;28;20108;-49
2022/05/03 05:01:02;;;;;;;15.68;10.52;;;;;;;15.88;51.62;99619.53;4957481;28;20074;-49
2022/05/03 05:03:46;;;;;;;14.82;10.93;;;;;;;15.54;51.20;99617.66;4957907;28;20038;-50
2022/05/03 05:06:31;;;;;;;15.23;9.93;;;;;;;16.31;52.77;99630.59;4957956;28;20188;-50
2022/05/03 05:09:15;;;;;;;15.82;10.30;;;;;;;15.87;50.41;99630.19;4958131;28;20050;-49
2022/05/03 05:12:00;;;;;;;22.55;10.70;;;;;;;16.53;51.19;99627.66;4957914;28;20062;-50
2022/05/03 05:14:45;;;;;;;13.82;10.02;;;;;;;16.00;49.74;99627.78;4960452;28;20062;-51
2022/05/03 05:17:33;;;;;;;16.20;9.68;;;;;;;16.96;49.45;99635.13;4959146;28;20059;-49
2022/05/03 05:20:18;;;;;;;15.02;9.52;;;;;;;17.59;48.79;99629.03;4959429;28;20618;-50
2022/05/03 05:23:03;;;;;;;18.80;9.90;;;;;;;17.53;47.53;99633.72;4959197;28;20119;-49
2022/05/03 05:25:49;;;;;;;13.73;8.93;;;;;;;17.85;45.77;99640.81;4957658;28;20063;-50
2022/05/03 05:28:33;;;;;;;15.43;10.52;;;;;;;17.06;47.28;99638.97;4957405;28;20055;-49
2022/05/03 05:31:18;;;;;;;16.23;9.95;;;;;;;17.19;46.63;99634.75;4957069;28;20058;-49
2022/05/03 05:34:02;;;;;;;16.77;9.85;;;;;;;17.43;46.66;99637.81;4956258;28;20058;-49
2022/05/03 05:36:46;;;;;;;13.02;9.73;;;;;;;18.13;47.48;99622.31;4957252;28;20062;-50
2022/05/03 05:39:31;;;;;;;16.38;10.32;;;;;;;18.43;46.44;99627.63;4956378;28;20429;-50
2022/05/03 05:42:15;;;;;;;15.70;9.80;;;;;;;18.39;46.60;99635.84;4958174;28;20142;-49
2022/05/03 05:44:59;;;;;;;16.20;10.05;;;;;;;17.17;47.84;99644.56;4957392;28;20112;-51
2022/05/03 05:47:44;;;;;;;17.52;9.77;;;;;;;17.72;46.47;99643.28;4956088;28;20424;-50
2022/05/03 05:50:29;;;;;;;15.63;9.82;;;;;;;17.39;46.62;99635.44;4957241;28;20074;-50
2022/05/03 05:53:32;;;;;;;12.45;9.73;;;;;;;17.76;45.88;99639.50;4957094;28;20119;-50
2022/05/03 05:56:16;;;;;;;13.18;9.38;;;;;;;17.58;47.59;99637.88;4958638;28;20059;-49
2022/05/03 05:59:01;;;;;;;13.32;9.30;;;;;;;18.40;47.09;99635.75;4957129;28;20366;-49
2022/05/03 06:01:46;;;;;;;13.23;9.00;;;;;;;18.97;45.51;99642.06;4957951;28;20050;-49
2022/05/03 06:04:33;;;;;;;11.43;7.75;;;;;;;19.55;43.73;99643.69;4956967;28;20051;-50
2022/05/03 06:07:17;;;;;;;10.30;7.13;;;;;;;19.07;42.34;99645.84;4957093;28;20043;-51
2022/05/03 06:10:04;;;;;;;9.13;6.07;;;;;;;17.99;43.27;99644.34;4957012;28;20059;-51
2022/05/03 06:12:48;;;;;;;11.70;7.22;;;;;;;17.71;44.59;99645.06;4956441;28;20089;-50
2022/05/03 06:15:33;;;;;;;9.00;6.55;;;;;;;17.62;44.82;99653.53;4956725;28;20406;-50
2022/05/03 06:18:17;;;;;;;9.85;7.30;;;;;;;17.55;45.15;99659.22;4957656;28;20067;-49
2022/05/03 06:21:05;;;;;;;10.00;5.88;;;;;;;17.93;44.71;99649.16;4957540;28;20047;-50
2022/05/03 06:23:49;;;;;;;10.38;6.05;;;;;;;18.69;44.13;99651.72;4957094;28;20051;-49
2022/05/03 06:26:34;;;;;;;12.43;6.63;;;;;;;19.06;42.68;99647.66;4971298;28;20374;-51
2022/05/03 06:29:19;;;;;;;9.77;6.75;;;;;;;19.70;42.79;99649.84;4956714;28;20066;-51
2022/05/03 06:32:04;;;;;;;11.23;7.32;;;;;;;19.61;40.72;99657.41;4958075;28;20650;-50
2022/05/03 06:34:48;;;;;;;11.20;7.15;;;;;;;19.30;41.64;99655.00;4957326;28;20393;-50
2022/05/03 06:37:37;;;;;;;9.23;5.97;;;;;;;19.91;41.70;99656.41;4956378;28;20063;-51
2022/05/03 06:40:22;;;;;;;9.82;6.88;;;;;;;20.20;41.44;99656.28;4957325;28;20085;-50
2022/05/03 06:43:08;;;;;;;10.75;7.68;;;;;;;19.32;41.45;99651.31;4955525;28;20055;-51
2022/05/03 06:45:53;;;;;;;8.50;6.70;;;;;;;19.96;39.56;99656.13;4956589;28;20493;-50
2022/05/03 06:48:38;;;;;;;8.40;6.55;;;;;;;20.45;39.91;99651.00;4956392;28;20117;-50
2022/05/03 06:51:23;;;;;;;10.40;6.68;;;;;;;20.47;40.57;99654.41;4957137;28;20055;-49
2022/05/03 06:54:08;;;;;;;10.73;5.78;;;;;;;20.57;40.41;99648.47;4955525;28;20049;-50
2022/05/03 06:56:52;;;;;;;9.88;5.85;;;;;;;20.67;39.90;99652.19;4957222;28;20042;-51
2022/05/03 06:59:37;;;;;;;7.30;5.47;;;;;;;21.17;39.43;99648.66;4954542;28;20077;-50
2022/05/03 07:02:21;;;;;;;8.52;5.22;;;;;;;21.07;38.83;99650.25;4953236;28;20399;-50
2022/05/03 07:05:07;;;;;;;8.77;4.78;;;;;;;21.45;38.34;99650.22;4953810;28;20054;-51
2022/05/03 07:07:51;;;;;;;9.98;4.60;;;;;;;21.69;37.86;99650.22;4953030;28;20108;-51
2022/05/03 07:10:37;;;;;;;6.93;4.32;;;;;;;21.14;35.87;99662.19;4953473;28;20055;-51
2022/05/03 07:13:23;;;;;;;4.72;3.88;;;;;;;21.73;36.21;99656.19;4950683;28;20505;-51
2022/05/03 07:16:08;;;;;;;5.95;4.28;;;;;;;21.60;37.03;99663.38;4949982;28;20056;-51
2022/05/03 07:24:58;;;;;;;4.82;3.95;;;;;;;21.17;37.83;99667.28;4951155;28;20497;-50
2022/05/03 07:27:46;;;;;;;6.32;4.55;;;;;;;20.45;38.73;99666.94;4952386;28;20054;-51
2022/05/03 07:30:31;;;;;;;6.38;4.60;;;;;;;21.32;36.57;99672.47;4951443;28;20055;-51
2022/05/03 07:33:17;;;;;;;7.18;4.85;;;;;;;21.60;36.41;99669.53;4951802;28;20046;-52
2022/05/03 07:36:04;;;;;;;9.07;4.50;;;;;;;21.47;35.87;99669.59;4951760;28;20047;-52
2022/05/03 07:38:49;;;;;;;5.30;3.90;;;;;;;22.49;35.33;99673.63;4953154;28;20497;-51
2022/05/03 07:41:34;;;;;;;7.60;4.53;;;;;;;22.48;33.90;99669.22;4950305;28;20591;-53
2022/05/03 07:44:19;;;;;;;5.70;3.85;;;;;;;23.33;34.16;99669.72;4952771;28;20046;-52
2022/05/03 07:47:03;;;;;;;6.80;4.57;;;;;;;22.79;35.37;99669.53;4952935;28;20055;-51
2022/05/03 07:49:48;;;;;;;7.35;4.40;;;;;;;23.59;34.38;99677.41;4950034;28;20058;-52
2022/05/03 07:52:35;;;;;;;5.50;4.25;;;;;;;23.24;34.27;99677.63;4952363;28;20047;-53
2022/05/03 07:55:20;;;;;;;5.22;4.30;;;;;;;23.25;34.99;99677.47;4952380;28;20073;-52
2022/05/03 07:58:05;;;;;;;6.57;4.25;;;;;;;22.25;33.97;99683.47;4952067;28;20054;-51
2022/05/03 08:00:50;;;;;;;5.47;3.88;;;;;;;22.97;34.94;99684.13;4952032;28;20059;-52
2022/05/03 08:03:34;;;;;;;8.93;5.22;;;;;;;23.45;35.29;99683.88;4950583;28;20039;-52
2022/05/03 08:06:18;;;;;;;4.65;3.67;;;;;;;22.89;34.47;99686.53;4952506;28;20392;-52
2022/05/03 08:09:03;;;;;;;4.47;4.00;;;;;;;22.89;34.42;99683.03;4955740;28;20074;-52
2022/05/03 08:11:48;;;;;;;5.70;3.83;;;;;;;22.55;34.98;99678.47;4955230;28;20046;-53
2022/05/03 08:14:33;;;;;;;6.22;4.38;;;;;;;23.27;34.89;99672.88;4950922;28;20059;-52
2022/05/03 08:17:17;;;;;;;7.38;4.93;;;;;;;23.56;35.00;99681.22;4955621;28;20145;-52
2022/05/03 08:20:02;;;;;;;5.32;4.00;;;;;;;24.01;33.95;99682.94;4956071;28;20054;-53
2022/05/03 08:22:47;;;;;;;5.80;3.70;;;;;;;24.17;34.05;99687.84;4955070;28;20050;-52
2022/05/03 08:25:32;;;;;;;3.47;3.08;;;;;;;23.82;33.38;99680.06;4954842;28;20145;-53
2022/05/03 08:28:16;;;;;;;5.28;3.65;;;;;;;23.25;33.78;99685.50;4954876;28;20362;-52
2022/05/03 08:31:02;;;;;;;7.22;3.53;;;;;;;22.12;34.50;99681.69;4953150;28;20042;-53
2022/05/03 08:33:47;;;;;;;4.70;3.58;;;;;;;22.87;33.59;99680.47;4954339;28;20047;-54
2022/05/03 08:36:33;;;;;;;6.75;3.58;;;;;;;23.54;33.49;99684.97;4954888;28;20054;-54
2022/05/03 08:42:21;;;;;;;6.43;3.15;;;;;;;24.39;32.55;99681.56;4955224;28;20082;-53
2022/05/03 08:45:05;;;;;;;4.50;2.90;;;;;;;24.52;32.46;99676.88;4955268;28;20059;-54
2022/05/03 08:47:51;;;;;;;5.68;3.20;;;;;;;24.52;32.93;99679.56;4955266;28;20050;-53
2022/05/03 08:50:35;;;;;;;4.55;2.88;;;;;;;24.60;32.89;99681.56;4955114;28;20108;-55
2022/05/03 08:53:21;;;;;;;9.35;4.47;;;;;;;24.57;33.37;99679.16;4955187;28;20043;-54
2022/05/03 08:56:06;;;;;;;4.57;3.20;;;;;;;24.28;33.24;99685.16;4955495;28;20043;-53
2022/05/03 08:58:51;;;;;;;5.65;3.50;;;;;;;24.12;32.58;99679.38;4954604;28;20153;-55
2022/05/03 09:01:36;;;;;;;7.65;3.75;;;;;;;23.54;33.05;99677.81;4947729;28;20970;-53
2022/05/03 09:04:20;;;;;;;5.13;3.35;;;;;;;23.62;32.93;99685.19;4954486;28;20402;-53
2022/05/03 09:07:22;;;;;;;3.83;3.22;;;;;;;23.50;33.07;99683.53;4952653;28;20051;-53
2022/05/03 09:10:20;;;;;;;6.53;3.03;;;;;;;23.13;33.30;99681.09;4955651;28;20055;-53
2022/05/03 09:13:22;;;;;;;4.28;2.92;;;;;;;23.22;32.91;99671.53;4956764;28;20074;-53
2022/05/03 09:16:17;;;;;;;4.80;2.92;;;;;;;23.00;33.87;99681.22;4955570;28;20059;-53
2022/05/03 09:19:01;;;;;;;6.25;3.08;;;;;;;23.40;33.58;99669.19;4957136;28;20047;-54
2022/05/03 09:24:52;;;;;;;9.45;2.88;;;;;;;23.33;33.71;99682.19;4959532;28;20047;-54
2022/05/03 09:27:37;;;;;;;3.85;3.10;;;;;;;23.21;32.08;99672.50;4959043;28;20627;-54
2022/05/03 09:30:22;;;;;;;2.88;2.50;;;;;;;22.95;32.56;99675.41;4959253;28;20055;-53
2022/05/03 09:33:14;;;;;;;3.92;2.58;;;;;;;22.97;33.18;99670.78;4964646;28;20047;-54
2022/05/03 09:36:07;;;;;;;6.18;2.38;;;;;;;22.68;33.85;99666.84;4958359;28;20043;-54
2022/05/03 09:38:55;;;;;;;4.22;2.67;;;;;;;23.29;32.43;99660.22;4958380;28;20039;-54
2022/05/03 09:41:39;;;;;;;6.22;2.25;;;;;;;23.09;32.99;99671.66;4953337;28;20378;-54
2022/05/03 09:44:24;;;;;;;3.67;2.28;;;;;;;23.07;33.49;99662.91;4956575;28;20059;-54
2022/05/03 09:47:10;;;;;;;5.47;3.60;;;;;;;23.65;33.58;99670.72;4957997;28;20043;-53
2022/05/03 09:49:55;;;;;;;4.55;2.80;;;;;;;23.64;32.22;99663.69;4958367;28;20059;-54
2022/05/03 09:52:41;;;;;;;3.67;2.90;;;;;;;23.54;33.14;99669.78;4957625;28;20046;-54
2022/05/03 09:55:30;;;;;;;5.10;2.80;;;;;;;23.14;32.57;99661.47;4959628;28;21871;-53
2022/05/03 09:58:17;;;;;;;3.15;2.83;;;;;;;23.63;32.61;99662.84;4959232;28;20054;-53
2022/05/03 10:01:02;;;;;;;5.35;2.28;;;;;;;24.12;32.21;99657.97;4972153;28;20046;-53
2022/05/03 10:03:47;;;;;;;4.22;2.53;;;;;;;23.60;31.83;99668.44;4958915;28;20051;-55
2022/05/03 10:06:34;;;;;;;4.22;3.10;;;;;;;23.36;32.48;99663.25;4956574;28;20050;-55
2022/05/03 10:09:19;;;;;;;6.20;2.60;;;;;;;24.17;31.29;99650.41;4956383;28;20093;-53
2022/05/03 10:12:04;;;;;;;2.97;2.15;;;;;;;24.27;31.19;99646.81;4955343;28;20058;-53
2022/05/03 10:14:49;;;;;;;3.58;2.53;;;;;;;24.31;32.33;99644.75;4955185;28;20082;-53
2022/05/03 10:20:57;;;;;;;4.40;2.00;;;;;;;24.36;30.58;99641.69;4956444;28;20054;-54
2022/05/03 10:23:59;;;;;;;2.97;2.15;;;;;;;24.39;29.81;99647.59;4956783;28;20569;-54
2022/05/03 10:27:06;;;;;;;6.70;3.10;;;;;;;23.49;32.22;99641.72;4956236;28;20133;-52
2022/05/03 10:30:15;;;;;;;5.45;2.65;;;;;;;22.64;32.56;99635.06;4955779;28;20069;-52
2022/05/03 10:33:23;;;;;;;4.82;3.28;;;;;;;22.75;32.49;99634.22;4956957;28;20059;-54
2022/05/03 10:36:30;;;;;;;8.27;7.13;;;;;;;22.62;33.27;99638.84;4961482;28;20070;-53
2022/05/03 10:39:20;;;;;;;5.68;3.28;;;;;;;22.31;32.30;99627.84;4956479;28;20054;-53
2022/05/03 10:42:13;;;;;;;5.88;4.53;;;;;;;22.39;32.68;99629.91;4969102;28;20141;-53
2022/05/03 10:44:59;;;;;;;8.27;4.70;;;;;;;;;;4972188;28;20067;-53
2022/05/03 10:47:53;;;;;;;4.97;3.08;;;;;;;22.52;33.13;99625.34;4956127;28;20081;-53
2022/05/03 10:50:38;;;;;;;5.13;2.45;;;;;;;23.12;32.50;99622.50;4955167;28;20070;-53
2022/05/03 10:53:25;;;;;;;14.45;9.20;;;;;;;23.04;32.96;99620.41;4955981;28;20054;-53
2022/05/03 10:56:16;;;;;;;15.32;10.65;;;;;;;23.09;32.93;99629.75;4954927;28;20130;-53
2022/05/03 10:59:13;;;;;;;8.18;5.35;;;;;;;22.87;32.65;99627.91;4954872;28;20498;-53
2022/05/03 11:02:04;;;;;;;5.90;3.28;;;;;;;22.63;33.52;99621.84;4955205;28;20059;-58
2022/05/03 11:05:16;;;;;;;5.88;3.60;;;;;;;22.61;31.84;99605.94;4953053;28;20113;-53
2022/05/03 11:08:15;;;;;;;4.50;2.60;;;;;;;23.17;33.04;99612.25;4953634;28;20047;-53
2022/05/03 11:10:59;;;;;;;4.47;2.65;;;;;;;23.36;32.14;99622.31;4955916;28;20050;-53
2022/05/03 11:13:44;;;;;;;4.07;2.72;;;;;;;23.10;32.45;99619.94;4950642;28;20043;-55
2022/05/03 11:16:34;;;;;;;3.25;2.38;;;;;;;23.14;32.39;99613.38;4954158;28;20058;-54
2022/05/03 11:19:21;;;;;;;6.88;3.38;;;;;;;22.79;33.10;99613.47;4952871;28;20074;-53
2022/05/03 11:22:11;;;;;;;3.78;2.88;;;;;;;22.97;33.42;99609.38;4954964;28;20054;-54
2022/05/03 11:24:57;;;;;;;4.50;3.42;;;;;;;22.48;34.24;99613.19;4952392;28;20063;-54
2022/05/03 11:27:44;;;;;;;5.38;3.03;;;;;;;22.18;33.42;99605.75;4955589;28;20046;-53
2022/05/03 11:30:28;;;;;;;4.88;3.55;;;;;;;22.38;33.63;99607.72;4952591;28;20054;-53
2022/05/03 11:33:13;;;;;;;6.03;2.78;;;;;;;22.10;33.44;99602.78;4953600;28;20047;-53
2022/05/03 11:35:57;;;;;;;5.45;2.80;;;;;;;21.80;33.98;99603.25;4952995;28;20378;-52
2022/05/03 11:38:41;;;;;;;7.07;2.70;;;;;;;22.15;34.05;99605.94;4952355;28;20047;-52
2022/05/03 11:41:28;;;;;;;3.33;3.03;;;;;;;22.26;34.44;99599.81;4954776;28;20058;-53
2022/05/03 11:44:13;;;;;;;3.55;2.50;;;;;;;22.77;33.97;99607.41;4965983;28;20829;-52
2022/05/03 11:47:02;;;;;;;3.13;2.65;;;;;;;23.05;34.17;99608.78;4956916;28;20059;-53
2022/05/03 11:49:46;;;;;;;9.30;3.53;;;;;;;23.09;33.71;99594.19;4957053;28;20054;-53
2022/05/03 11:56:00;;;;;;;4.07;2.53;;;;;;;22.68;33.82;99600.13;4957307;28;20051;-54
2022/05/03 11:58:46;;;;;;;5.50;2.92;;;;;;;22.69;33.92;99602.69;4958047;28;20051;-53
2022/05/03 12:01:34;;;;;;;4.43;2.63;;;;;;;22.43;33.73;99595.88;4956999;28;20466;-53
2022/05/03 12:04:20;;;;;;;6.05;3.10;;;;;;;;;;4959616;28;20050;-54
2022/05/03 12:07:05;;;;;;;2.92;2.22;;;;;;;22.14;34.75;99602.44;4959157;28;20078;-52
2022/05/03 12:09:49;;;;;;;3.35;2.70;;;;;;;22.00;35.10;99591.09;4958699;28;20055;-53
2022/05/03 12:12:43;;;;;;;4.03;2.75;;;;;;;22.01;35.46;99606.16;4955857;28;20055;-52
2022/05/03 12:15:28;;;;;;;7.47;3.15;;;;;;;21.80;34.89;99597.94;4952505;28;20068;-53
2022/05/03 12:18:16;;;;;;;5.60;3.15;;;;;;;21.88;35.27;99593.75;4955076;28;20062;-52
2022/05/03 12:21:02;;;;;;;3.88;3.10;;;;;;;21.83;35.28;99597.72;4955586;28;20061;-53
2022/05/03 12:23:48;;;;;;;4.45;3.30;;;;;;;21.63;35.51;99592.03;4956005;28;20047;-52
2022/05/03 12:26:33;;;;;;;4.18;3.70;;;;;;;21.72;35.76;99600.34;4957110;28;20359;-53
2022/05/03 12:29:21;;;;;;;4.10;3.58;;;;;;;21.90;35.42;99593.59;4954010;28;20154;-53
2022/05/03 12:32:12;;;;;;;5.05;3.38;;;;;;;21.98;35.08;99590.38;4954867;28;20370;-53
2022/05/03 12:34:58;;;;;;;4.95;2.90;;;;;;;21.72;36.26;99595.84;4956049;28;20677;-53
2022/05/03 12:37:51;;;;;;;4.57;3.10;;;;;;;21.76;36.25;99593.81;4956547;28;20059;-52
2022/05/03 12:40:42;;;;;;;;;;;;;;;21.77;36.72;99595.50;4957396;28;22014;-53
2022/05/03 12:43:28;;;;;;;7.20;3.70;;;;;;;21.58;35.70;99591.56;4955582;28;19922;-53
2022/05/03 12:46:14;;;;;;;5.43;4.10;;;;;;;21.69;36.10;99585.41;4954460;28;20050;-52
2022/05/03 12:49:09;;;;;;;8.93;3.22;;;;;;;21.61;36.42;99582.47;4956086;28;20062;-53
2022/05/03 12:51:53;;;;;;;6.32;3.72;;;;;;;21.22;36.53;99587.94;4956214;28;21462;-52
2022/05/03 12:54:43;;;;;;;6.78;3.70;;;;;;;21.49;37.01;99575.41;4954934;28;20758;-52
2022/05/03 13:00:33;;;;;;;3.05;2.75;;;;;;;22.32;37.52;99580.66;4955601;28;20066;-52
2022/05/03 13:03:18;;;;;;;5.50;2.90;;;;;;;22.52;35.40;99568.44;4956644;28;20050;-52
2022/05/03 13:06:02;;;;;;;8.98;4.35;;;;;;;22.31;35.92;99566.47;4955031;28;20051;-52
2022/05/03 13:08:50;;;;;;;3.58;3.28;;;;;;;22.47;35.72;99568.81;4955044;28;20386;-53
2022/05/03 13:11:34;;;;;;;5.90;4.07;;;;;;;22.32;35.97;99568.19;4956525;28;20828;-52
2022/05/03 13:14:19;;;;;;;6.60;2.75;;;;;;;22.54;35.65;99564.69;4955073;28;20051;-54
2022/05/03 13:17:04;;;;;;;5.38;3.28;;;;;;;22.25;35.50;99566.09;4955025;28;20385;-52
2022/05/03 13:19:48;;;;;;;5.20;3.78;;;;;;;22.06;36.60;99559.47;4953931;28;20058;-53
2022/05/03 13:22:32;;;;;;;5.20;3.53;;;;;;;21.63;36.29;99565.41;4959343;28;20055;-53
2022/05/03 13:25:17;;;;;;;6.45;3.90;;;;;;;21.42;36.55;99567.84;4957476;28;20043;-52
2022/05/03 13:28:01;;;;;;;4.78;2.85;;;;;;;21.48;37.38;99555.88;4958927;28;20053;-53
2022/05/03 13:30:47;;;;;;;3.90;3.25;;;;;;;21.27;37.05;99554.78;4956673;28;20085;-52
2022/05/03 13:33:31;;;;;;;5.85;3.10;;;;;;;21.01;38.48;99561.03;4958347;28;20093;-52
2022/05/03 13:42:23;;;;;;;4.28;3.42;;;;;;;21.16;37.29;99556.41;4957854;28;20116;-53
2022/05/03 14:05:56;;;;;;;5.75;3.35;;;;;;;20.95;38.33;99547.31;5101977;27;20414;-52
2022/05/03 14:08:41;;;;;;;5.70;3.40;;;;;;;21.06;38.59;99541.19;5101245;28;20086;-53
2022/05/03 14:11:26;;;;;;;5.30;3.78;;;;;;;20.58;39.11;99536.66;5101519;28;20382;-53